Time;durP1;ratioP1;P1;durP2;ratioP2;P2;SDS_P1;SDS_P2;PMS_P1;PMS_P2;Temp;Humidity;BMP_temperature;BMP_pressure;BME280_temperature;BME280_humidity;BME280_pressure;Samples;Min_cycle;Max_cycle;Signal;HPM_P1;HPM_P2
2023/07/04 00:01:15;;;;;;;8.77;6.03;;;15.90;99.90;;;;;;5008212;28;20429;-74
2023/07/04 00:03:45;;;;;;;8.50;6.57;;;15.80;99.90;;;;;;5001143;28;20545;-73
2023/07/04 00:06:17;;;;;;;11.83;6.10;;;15.80;99.90;;;;;;5003969;28;20544;-73
2023/07/04 00:08:45;;;;;;;12.20;6.30;;;15.80;99.90;;;;;;5004616;28;20434;-74
2023/07/04 00:11:13;;;;;;;12.10;7.03;;;15.80;99.90;;;;;;5005170;28;20518;-74
2023/07/04 00:13:40;;;;;;;10.57;6.27;;;15.80;99.90;;;;;;5009820;28;20456;-73
2023/07/04 00:16:09;;;;;;;10.40;6.50;;;15.80;99.90;;;;;;5003769;28;20480;-74
2023/07/04 00:18:37;;;;;;;14.47;7.13;;;15.80;99.90;;;;;;5001160;28;20441;-73
2023/07/04 00:21:12;;;;;;;12.07;6.67;;;15.80;99.90;;;;;;5002863;28;20466;-73
2023/07/04 00:23:39;;;;;;;11.53;6.80;;;15.80;99.90;;;;;;5003963;28;20518;-73
2023/07/04 00:26:07;;;;;;;14.33;7.20;;;15.80;99.90;;;;;;5004647;28;20466;-73
2023/07/04 00:28:38;;;;;;;14.40;6.73;;;15.80;99.90;;;;;;5007639;28;20430;-74
2023/07/04 00:31:06;;;;;;;8.30;6.10;;;15.80;99.90;;;;;;4997178;28;20455;-73
2023/07/04 00:33:33;;;;;;;13.10;7.60;;;15.80;99.90;;;;;;5004493;28;20535;-73
2023/07/04 00:36:03;;;;;;;11.70;7.27;;;15.80;99.90;;;;;;5001317;28;20431;-73
2023/07/04 00:38:33;;;;;;;14.43;7.43;;;15.70;99.90;;;;;;5005960;28;20472;-73
2023/07/04 00:41:01;;;;;;;14.17;7.10;;;15.70;99.90;;;;;;5004006;28;20425;-74
2023/07/04 00:43:45;;;;;;;14.07;7.10;;;15.70;99.90;;;;;;5009334;28;20508;-73
2023/07/04 00:46:14;;;;;;;14.10;7.27;;;15.70;99.90;;;;;;4998110;28;20458;-73
2023/07/04 00:48:44;;;;;;;16.50;8.10;;;15.60;99.90;;;;;;5000211;28;20437;-74
2023/07/04 00:51:21;;;;;;;13.07;7.23;;;15.60;99.90;;;;;;5004108;28;20459;-73
2023/07/04 00:53:53;;;;;;;17.97;7.13;;;15.50;99.90;;;;;;5010695;28;20488;-73
2023/07/04 00:56:22;;;;;;;13.30;6.90;;;15.50;99.90;;;;;;5007833;28;20437;-74
2023/07/04 00:58:49;;;;;;;14.73;8.17;;;15.40;99.90;;;;;;4995864;28;20712;-73
2023/07/04 01:01:19;;;;;;;11.50;6.80;;;15.40;99.90;;;;;;5000381;28;20457;-73
2023/07/04 01:03:46;;;;;;;9.93;7.00;;;15.40;99.90;;;;;;5001515;28;20473;-74
2023/07/04 01:06:23;;;;;;;12.70;6.90;;;15.40;99.90;;;;;;5006573;28;20549;-73
2023/07/04 01:08:56;;;;;;;11.30;6.87;;;15.30;99.90;;;;;;5008523;28;20445;-73
2023/07/04 01:11:29;;;;;;;11.23;7.27;;;15.30;99.90;;;;;;4995493;28;20462;-74
2023/07/04 01:13:56;;;;;;;14.73;7.53;;;15.30;99.90;;;;;;4999566;28;20566;-73
2023/07/04 01:16:23;;;;;;;16.63;7.63;;;15.30;99.90;;;;;;5002822;28;20998;-74
2023/07/04 01:18:52;;;;;;;14.03;7.40;;;15.30;99.90;;;;;;5004335;28;20462;-73
2023/07/04 01:21:23;;;;;;;13.27;7.30;;;15.30;99.90;;;;;;5016237;28;20513;-73
2023/07/04 01:24:00;;;;;;;16.73;7.10;;;15.30;99.90;;;;;;4998456;28;20486;-75
2023/07/04 01:26:30;;;;;;;14.77;7.33;;;15.20;99.90;;;;;;4997071;28;20532;-74
2023/07/04 01:28:58;;;;;;;13.30;7.90;;;15.20;99.90;;;;;;5000250;28;20534;-74
2023/07/04 01:31:27;;;;;;;14.53;8.10;;;15.20;99.90;;;;;;5004485;28;20451;-74
2023/07/04 01:33:55;;;;;;;14.00;7.00;;;15.20;99.90;;;;;;5006562;28;20457;-74
2023/07/04 01:36:24;;;;;;;19.00;7.43;;;15.20;99.90;;;;;;5002460;28;20437;-75
2023/07/04 01:38:51;;;;;;;15.90;7.53;;;15.20;99.90;;;;;;4999032;28;20437;-75
2023/07/04 01:41:18;;;;;;;17.73;8.27;;;15.20;99.90;;;;;;5002399;28;20501;-74
2023/07/04 01:43:51;;;;;;;13.03;6.13;;;15.20;99.90;;;;;;5005260;28;20478;-74
2023/07/04 01:46:17;;;;;;;16.40;8.10;;;15.10;99.90;;;;;;5008361;28;20934;-74
2023/07/04 01:48:44;;;;;;;11.03;7.23;;;15.10;99.90;;;;;;5006800;28;20459;-74
2023/07/04 01:51:11;;;;;;;14.53;7.33;;;15.10;99.90;;;;;;5004167;28;20517;-74
2023/07/04 01:53:37;;;;;;;16.00;7.80;;;15.00;99.90;;;;;;4997854;28;21030;-75
2023/07/04 01:56:04;;;;;;;13.10;6.93;;;15.00;99.90;;;;;;5002206;28;20450;-74
2023/07/04 01:58:31;;;;;;;15.13;7.20;;;15.00;99.90;;;;;;5004079;28;20446;-74
2023/07/04 02:00:59;;;;;;;17.20;7.93;;;15.00;99.90;;;;;;5005577;28;20958;-74
2023/07/04 02:03:26;;;;;;;20.00;8.60;;;14.90;99.90;;;;;;5000812;28;20446;-75
2023/07/04 02:05:52;;;;;;;11.33;7.70;;;14.90;99.90;;;;;;4995556;28;20518;-74
2023/07/04 02:08:19;;;;;;;17.93;7.93;;;14.90;99.90;;;;;;4999693;28;20910;-74
2023/07/04 02:10:46;;;;;;;13.90;7.23;;;14.90;99.90;;;;;;5007194;28;20433;-74
2023/07/04 02:13:12;;;;;;;14.80;7.60;;;14.80;99.90;;;;;;5005915;28;20433;-75
2023/07/04 02:15:39;;;;;;;15.20;7.53;;;14.80;99.90;;;;;;5006290;28;20442;-74
2023/07/04 02:18:08;;;;;;;18.03;7.77;;;14.70;99.90;;;;;;4993558;28;20510;-74
2023/07/04 02:20:35;;;;;;;18.53;7.73;;;14.70;99.90;;;;;;5004330;28;20525;-75
2023/07/04 02:23:01;;;;;;;14.70;7.40;;;14.70;99.90;;;;;;4999833;28;20463;-75
2023/07/04 02:25:28;;;;;;;17.70;7.87;;;14.60;99.90;;;;;;5006802;28;20508;-75
2023/07/04 02:27:55;;;;;;;21.40;8.00;;;14.60;99.90;;;;;;5001530;28;20983;-74
2023/07/04 02:30:21;;;;;;;18.20;8.37;;;14.60;99.90;;;;;;4993602;28;20485;-74
2023/07/04 02:32:48;;;;;;;19.73;8.67;;;14.60;99.90;;;;;;4995516;28;20460;-74
2023/07/04 02:35:16;;;;;;;21.27;8.33;;;14.60;99.90;;;;;;4999102;28;20526;-74
2023/07/04 02:37:43;;;;;;;12.20;7.30;;;14.50;99.90;;;;;;5003637;28;20484;-74
2023/07/04 02:40:10;;;;;;;16.20;7.53;;;14.50;99.90;;;;;;5006450;28;20458;-74
2023/07/04 02:42:37;;;;;;;19.93;7.20;;;14.50;99.90;;;;;;5004860;28;20504;-74
2023/07/04 02:45:06;;;;;;;15.33;7.80;;;14.40;99.90;;;;;;4993838;28;20495;-74
2023/07/04 02:47:33;;;;;;;19.80;8.40;;;14.40;99.90;;;;;;4997438;28;20482;-75
2023/07/04 02:50:00;;;;;;;13.10;6.90;;;14.30;99.90;;;;;;4999221;28;20433;-74
2023/07/04 02:52:30;;;;;;;18.80;7.57;;;14.30;99.90;;;;;;5003618;28;20467;-74
2023/07/04 02:54:56;;;;;;;13.20;7.07;;;14.30;99.90;;;;;;5008482;28;21026;-74
2023/07/04 02:57:23;;;;;;;18.40;7.20;;;14.30;99.90;;;;;;4994290;28;20931;-74
2023/07/04 02:59:50;;;;;;;15.17;7.77;;;14.20;99.90;;;;;;5001952;28;20522;-74
2023/07/04 03:02:17;;;;;;;17.33;7.47;;;14.20;99.90;;;;;;5003016;28;20516;-74
2023/07/04 03:04:45;;;;;;;26.33;7.93;;;14.20;99.90;;;;;;5004436;28;20474;-74
2023/07/04 03:07:12;;;;;;;15.13;7.27;;;14.20;99.90;;;;;;4998179;28;20490;-74
2023/07/04 03:09:41;;;;;;;18.67;7.43;;;14.20;99.90;;;;;;4999049;28;20431;-74
2023/07/04 03:12:09;;;;;;;13.53;7.10;;;14.20;99.90;;;;;;4994383;28;20467;-74
2023/07/04 03:14:35;;;;;;;15.03;7.30;;;14.10;99.90;;;;;;4998191;28;20501;-74
2023/07/04 03:17:02;;;;;;;17.63;7.53;;;14.10;99.90;;;;;;5001255;28;20459;-74
2023/07/04 03:19:28;;;;;;;22.23;8.00;;;14.10;99.90;;;;;;5007827;28;20455;-74
2023/07/04 03:21:55;;;;;;;17.87;7.43;;;14.10;99.90;;;;;;5003232;28;20456;-74
2023/07/04 03:24:22;;;;;;;18.20;7.80;;;14.10;99.90;;;;;;4999875;28;20483;-74
2023/07/04 03:26:50;;;;;;;13.63;6.83;;;14.10;99.90;;;;;;5001402;28;20460;-74
2023/07/04 03:29:16;;;;;;;14.43;6.77;;;14.10;99.90;;;;;;5007065;28;20458;-74
2023/07/04 03:31:43;;;;;;;15.47;6.90;;;14.00;99.90;;;;;;5004067;28;20451;-74
2023/07/04 03:34:10;;;;;;;17.23;7.60;;;14.00;99.90;;;;;;5009609;28;20478;-74
2023/07/04 03:36:36;;;;;;;16.50;7.87;;;14.00;99.90;;;;;;4999896;28;20508;-74
2023/07/04 03:39:03;;;;;;;14.90;7.73;;;14.00;99.90;;;;;;5003294;28;20459;-74
2023/07/04 03:41:30;;;;;;;12.87;7.30;;;13.90;99.90;;;;;;5011507;28;20860;-74
2023/07/04 03:44:00;;;;;;;12.90;6.60;;;13.90;99.90;;;;;;5009706;28;20477;-74
2023/07/04 03:46:26;;;;;;;20.93;7.37;;;13.90;99.90;;;;;;5012389;28;20840;-74
2023/07/04 03:48:53;;;;;;;13.23;6.63;;;13.90;99.90;;;;;;5002217;28;20517;-74
2023/07/04 03:51:20;;;;;;;13.83;7.23;;;13.90;99.90;;;;;;5001967;28;20517;-74
2023/07/04 03:53:48;;;;;;;17.30;7.00;;;13.90;99.90;;;;;;5001455;28;20453;-74
2023/07/04 03:56:15;;;;;;;12.43;7.13;;;13.90;99.90;;;;;;5006144;28;20435;-74
2023/07/04 03:58:42;;;;;;;15.40;7.57;;;13.90;99.90;;;;;;5006526;28;20458;-74
2023/07/04 04:01:10;;;;;;;12.17;6.87;;;13.90;99.90;;;;;;5002534;28;20426;-74
2023/07/04 04:03:38;;;;;;;17.47;7.17;;;13.90;99.90;;;;;;4997044;28;20458;-74
2023/07/04 04:06:05;;;;;;;17.93;7.53;;;13.90;99.90;;;;;;5006283;28;20454;-74
2023/07/04 04:08:32;;;;;;;21.53;7.87;;;13.90;99.90;;;;;;5000718;28;20486;-74
2023/07/04 04:10:59;;;;;;;17.40;7.03;;;13.90;99.90;;;;;;5006714;28;20974;-74
2023/07/04 04:13:26;;;;;;;13.23;6.73;;;13.90;99.90;;;;;;5009467;28;20531;-74
2023/07/04 04:15:53;;;;;;;17.07;7.50;;;13.90;99.90;;;;;;5005719;28;20458;-74
2023/07/04 04:18:21;;;;;;;15.10;7.37;;;13.90;99.90;;;;;;5004103;28;20509;-74
2023/07/04 04:20:48;;;;;;;28.80;7.03;;;13.90;99.90;;;;;;5002838;28;20462;-74
2023/07/04 04:23:17;;;;;;;18.37;6.90;;;13.90;99.90;;;;;;5002464;28;20560;-74
2023/07/04 04:25:45;;;;;;;18.43;8.37;;;13.90;99.90;;;;;;5008201;28;20946;-74
2023/07/04 04:28:13;;;;;;;26.90;7.30;;;14.00;99.90;;;;;;5008312;28;20487;-74
2023/07/04 04:30:39;;;;;;;22.20;7.77;;;14.00;99.90;;;;;;5001934;28;20483;-74
2023/07/04 04:33:06;;;;;;;12.43;7.20;;;14.10;99.90;;;;;;4997799;28;20455;-74
2023/07/04 04:35:34;;;;;;;18.93;6.97;;;14.10;99.90;;;;;;5006414;28;20454;-75
2023/07/04 04:38:01;;;;;;;16.93;7.67;;;14.10;99.90;;;;;;5008284;28;20448;-74
2023/07/04 04:40:28;;;;;;;15.80;6.93;;;14.20;99.90;;;;;;5008552;28;20502;-72
2023/07/04 04:42:56;;;;;;;17.20;6.73;;;14.20;99.90;;;;;;5001656;28;20463;-72
2023/07/04 04:45:23;;;;;;;20.17;6.80;;;14.30;99.90;;;;;;5002568;28;20516;-72
2023/07/04 04:47:53;;;;;;;12.43;6.67;;;14.30;99.90;;;;;;4997336;28;20479;-72
2023/07/04 04:50:20;;;;;;;16.27;6.40;;;14.40;99.90;;;;;;5004652;28;20509;-72
2023/07/04 04:52:48;;;;;;;17.40;6.87;;;14.50;99.90;;;;;;5003168;28;20455;-72
2023/07/04 04:55:16;;;;;;;13.37;6.10;;;14.60;99.90;;;;;;5006542;28;20605;-72
2023/07/04 04:57:43;;;;;;;13.30;6.80;;;14.70;99.90;;;;;;5002195;28;20453;-72
2023/07/04 05:00:12;;;;;;;14.50;6.83;;;14.80;99.90;;;;;;5003256;28;20489;-72
2023/07/04 05:02:39;;;;;;;16.70;6.43;;;14.90;99.90;;;;;;5005962;28;20813;-72
2023/07/04 05:05:07;;;;;;;16.27;6.13;;;15.00;99.90;;;;;;5002928;28;20458;-72
2023/07/04 05:07:34;;;;;;;11.33;6.53;;;15.10;99.90;;;;;;5005506;28;20461;-72
2023/07/04 05:10:03;;;;;;;15.10;6.30;;;15.10;99.90;;;;;;5005064;28;20787;-72
2023/07/04 05:12:29;;;;;;;19.87;7.73;;;15.20;99.90;;;;;;4993980;28;20486;-72
2023/07/04 05:14:56;;;;;;;19.93;7.53;;;15.20;99.90;;;;;;5000644;28;20614;-72
2023/07/04 05:17:24;;;;;;;16.27;7.17;;;15.30;99.90;;;;;;5004451;28;20429;-73
2023/07/04 05:19:51;;;;;;;16.23;7.13;;;15.20;99.90;;;;;;5005034;28;20455;-72
2023/07/04 05:22:19;;;;;;;15.90;7.80;;;15.10;99.90;;;;;;5008575;28;20484;-70
2023/07/04 05:24:45;;;;;;;17.80;7.30;;;15.10;99.90;;;;;;5004840;28;20477;-70
2023/07/04 05:27:13;;;;;;;12.40;6.90;;;15.10;99.90;;;;;;4999094;28;20959;-70
2023/07/04 05:29:40;;;;;;;19.43;7.00;;;15.20;99.90;;;;;;4999739;28;20847;-71
2023/07/04 05:32:08;;;;;;;12.83;6.57;;;15.20;99.90;;;;;;5004328;28;20429;-70
2023/07/04 05:34:34;;;;;;;13.93;7.00;;;15.30;99.90;;;;;;5007499;28;20511;-70
2023/07/04 05:37:02;;;;;;;11.47;6.60;;;15.30;99.90;;;;;;5003738;28;20429;-70
2023/07/04 05:39:29;;;;;;;12.00;6.53;;;15.40;99.90;;;;;;5009033;28;20942;-71
2023/07/04 05:41:56;;;;;;;13.50;6.03;;;15.60;99.90;;;;;;4999556;28;20432;-72
2023/07/04 05:44:24;;;;;;;15.70;6.13;;;15.80;99.90;;;;;;5004849;28;20479;-72
2023/07/04 05:46:53;;;;;;;11.00;5.40;;;16.10;99.90;;;;;;5006364;28;20921;-72
2023/07/04 05:49:20;;;;;;;10.93;4.90;;;16.40;99.90;;;;;;5006241;28;20545;-71
2023/07/04 05:51:46;;;;;;;17.80;5.30;;;16.60;99.90;;;;;;5001513;28;20497;-72
2023/07/04 05:54:13;;;;;;;17.47;5.17;;;16.90;99.90;;;;;;5004062;28;20482;-72
2023/07/04 05:56:39;;;;;;;12.50;4.90;;;17.10;99.90;;;;;;5001811;28;20513;-71
2023/07/04 05:59:06;;;;;;;11.43;5.20;;;17.30;99.90;;;;;;5004924;28;20450;-71
2023/07/04 06:01:37;;;;;;;17.23;4.53;;;17.60;99.90;;;;;;5005451;28;20493;-72
2023/07/04 06:04:06;;;;;;;10.77;4.20;;;17.70;99.90;;;;;;5007472;28;20453;-71
2023/07/04 06:06:35;;;;;;;9.13;3.87;;;17.90;99.90;;;;;;4998695;28;20445;-71
2023/07/04 06:09:05;;;;;;;7.93;3.73;;;18.00;99.90;;;;;;4997501;28;20696;-72
2023/07/04 06:11:33;;;;;;;10.67;4.30;;;17.90;99.90;;;;;;4999332;28;20442;-71
2023/07/04 06:14:01;;;;;;;9.70;4.23;;;17.90;99.90;;;;;;5003876;28;20444;-72
2023/07/04 06:16:28;;;;;;;14.30;4.60;;;17.90;99.90;;;;;;5000608;28;20921;-71
2023/07/04 06:18:56;;;;;;;8.77;4.57;;;17.80;99.90;;;;;;5003865;28;20421;-72
2023/07/04 06:21:25;;;;;;;16.43;4.07;;;18.00;99.90;;;;;;5004375;28;20487;-72
2023/07/04 06:23:54;;;;;;;7.77;4.10;;;18.10;99.90;;;;;;5004024;28;20491;-72
2023/07/04 06:26:21;;;;;;;8.60;3.77;;;18.20;99.90;;;;;;5000597;28;20440;-72
2023/07/04 06:28:50;;;;;;;8.70;4.13;;;18.10;99.90;;;;;;5009120;28;20464;-72
2023/07/04 06:31:18;;;;;;;13.90;4.80;;;18.00;99.90;;;;;;5001304;28;20426;-72
2023/07/04 06:33:44;;;;;;;9.53;3.60;;;18.10;99.90;;;;;;4993983;28;20481;-72
2023/07/04 06:36:15;;;;;;;10.03;3.70;;;18.10;99.90;;;;;;4997759;28;20434;-72
2023/07/04 06:38:42;;;;;;;10.60;3.90;;;18.20;99.90;;;;;;4998757;28;20455;-72
2023/07/04 06:41:11;;;;;;;25.50;4.80;;;18.30;99.90;;;;;;5000270;28;20991;-70
2023/07/04 06:43:39;;;;;;;15.67;4.47;;;18.30;99.90;;;;;;4999553;28;20463;-71
2023/07/04 06:46:06;;;;;;;10.77;4.17;;;18.50;99.90;;;;;;5008450;28;20459;-71
2023/07/04 06:48:32;;;;;;;12.03;3.63;;;18.50;99.90;;;;;;4996938;28;20528;-71
2023/07/04 06:51:01;;;;;;;8.67;3.30;;;18.70;99.90;;;;;;5000100;28;20508;-71
2023/07/04 06:53:30;;;;;;;11.10;4.10;;;18.80;99.90;;;;;;5001160;28;20528;-71
2023/07/04 06:56:05;;;;;;;13.70;4.20;;;19.00;99.90;;;;;;5005342;28;20505;-71
2023/07/04 06:58:32;;;;;;;9.10;3.50;;;19.10;99.90;;;;;;4994908;28;20454;-71
2023/07/04 07:00:59;;;;;;;11.43;4.10;;;19.20;99.90;;;;;;5004022;28;20522;-71
2023/07/04 07:03:25;;;;;;;6.00;3.47;;;19.40;99.90;;;;;;5001778;28;20483;-71
2023/07/04 07:05:52;;;;;;;10.30;3.43;;;19.60;99.90;;;;;;5000529;28;20450;-71
2023/07/04 07:08:18;;;;;;;10.93;3.20;;;19.80;99.90;;;;;;5001045;28;20986;-71
2023/07/04 07:10:54;;;;;;;8.30;3.67;;;20.00;99.90;;;;;;5006106;28;20454;-71
2023/07/04 07:13:21;;;;;;;11.30;3.50;;;19.80;99.90;;;;;;5008265;28;20480;-71
2023/07/04 07:15:48;;;;;;;10.30;3.40;;;19.90;99.90;;;;;;4997726;28;20524;-71
2023/07/04 07:18:15;;;;;;;12.33;3.67;;;20.20;99.90;;;;;;5001498;28;20459;-71
2023/07/04 07:20:42;;;;;;;7.80;2.87;;;20.50;99.90;;;;;;5008295;28;20453;-72
2023/07/04 07:23:09;;;;;;;8.20;3.37;;;20.60;99.90;;;;;;5003203;28;20943;-71
2023/07/04 07:25:36;;;;;;;9.50;3.30;;;20.50;99.90;;;;;;5003579;28;20464;-71
2023/07/04 07:28:04;;;;;;;10.67;3.30;;;20.60;99.90;;;;;;4997713;28;20483;-71
2023/07/04 07:30:31;;;;;;;14.50;3.40;;;20.60;99.90;;;;;;4997874;28;20531;-70
2023/07/04 07:32:58;;;;;;;9.37;3.80;;;20.20;99.90;;;;;;5002066;28;20500;-71
2023/07/04 07:35:24;;;;;;;5.80;2.67;;;20.10;99.90;;;;;;5000587;28;20930;-71
2023/07/04 07:37:51;;;;;;;6.60;2.83;;;19.90;99.90;;;;;;5006736;28;21006;-72
2023/07/04 07:40:18;;;;;;;5.80;2.47;;;20.00;99.90;;;;;;5002516;28;20513;-71
2023/07/04 07:42:44;;;;;;;9.37;3.50;;;20.10;99.90;;;;;;4999724;28;20463;-71
2023/07/04 07:45:13;;;;;;;10.07;3.73;;;20.20;99.90;;;;;;4996777;28;20521;-71
2023/07/04 07:47:39;;;;;;;9.00;2.93;;;20.50;99.90;;;;;;5004357;28;21011;-72
2023/07/04 07:50:06;;;;;;;15.33;3.07;;;20.80;99.90;;;;;;5004952;28;20474;-71
2023/07/04 07:52:33;;;;;;;4.33;3.13;;;21.10;99.90;;;;;;5006931;28;20457;-71
2023/07/04 07:55:00;;;;;;;8.57;3.20;;;21.10;99.90;;;;;;5002736;28;20600;-71
2023/07/04 07:57:26;;;;;;;6.67;2.87;;;20.80;99.90;;;;;;4999463;28;20887;-71
2023/07/04 07:59:53;;;;;;;10.03;3.50;;;20.90;99.90;;;;;;5004545;28;20488;-71
2023/07/04 08:02:21;;;;;;;12.33;2.97;;;21.10;99.90;;;;;;5007447;28;20454;-72
2023/07/04 08:04:48;;;;;;;8.27;3.53;;;21.20;99.90;;;;;;5007272;28;20529;-71
2023/07/04 08:07:14;;;;;;;7.53;3.63;;;21.20;99.90;;;;;;5010240;28;20463;-72
2023/07/04 08:09:41;;;;;;;9.13;3.23;;;21.50;99.90;;;;;;5011991;28;20901;-71
2023/07/04 08:12:09;;;;;;;7.63;3.40;;;21.70;99.90;;;;;;5004317;28;20489;-71
2023/07/04 08:14:35;;;;;;;4.20;2.93;;;21.90;99.90;;;;;;5004493;28;20577;-72
2023/07/04 08:17:02;;;;;;;5.20;3.00;;;22.10;99.90;;;;;;5009746;28;20454;-72
2023/07/04 08:19:30;;;;;;;8.70;4.10;;;22.10;99.90;;;;;;5011143;28;20458;-70
2023/07/04 08:21:57;;;;;;;9.43;3.57;;;21.70;99.90;;;;;;5005635;28;20459;-71
2023/07/04 08:24:23;;;;;;;7.20;3.30;;;21.60;99.90;;;;;;5002825;28;20474;-71
2023/07/04 08:26:54;;;;;;;16.90;4.33;;;21.50;99.90;;;;;;5002400;28;20948;-70
2023/07/04 08:29:20;;;;;;;8.83;3.40;;;21.50;99.90;;;;;;5007251;28;20481;-70
2023/07/04 08:31:47;;;;;;;7.90;4.23;;;21.50;99.90;;;;;;5007778;28;20459;-71
2023/07/04 08:34:14;;;;;;;7.80;4.80;;;21.60;99.90;;;;;;5009698;28;20536;-71
2023/07/04 08:36:44;;;;;;;6.77;3.53;;;21.70;99.90;;;;;;5003337;28;20459;-70
2023/07/04 08:39:11;;;;;;;5.30;3.93;;;21.30;99.90;;;;;;5002798;28;20466;-70
2023/07/04 08:41:44;;;;;;;7.00;4.10;;;21.30;99.90;;;;;;5000732;28;20944;-70
2023/07/04 08:44:16;;;;;;;9.20;4.10;;;21.60;99.90;;;;;;5006971;28;20544;-70
2023/07/04 08:46:46;;;;;;;10.53;4.07;;;21.70;99.90;;;;;;5005810;28;20459;-70
2023/07/04 08:49:24;;;;;;;4.40;2.73;;;21.90;99.90;;;;;;4999462;28;20529;-70
2023/07/04 08:51:58;;;;;;;14.67;4.00;;;22.20;99.90;;;;;;4997005;28;20486;-70
2023/07/04 08:54:25;;;;;;;11.00;4.13;;;22.20;99.90;;;;;;4999544;28;20540;-70
2023/07/04 08:56:56;;;;;;;7.63;4.07;;;22.30;99.90;;;;;;5004505;28;20521;-70
2023/07/04 08:59:27;;;;;;;7.70;4.17;;;22.20;99.90;;;;;;5006157;28;20481;-71
2023/07/04 09:02:12;;;;;;;9.40;4.30;;;22.20;99.90;;;;;;5008056;28;20504;-71
2023/07/04 09:04:51;;;;;;;9.13;3.67;;;22.50;99.90;;;;;;4997996;28;20479;-70
2023/07/04 09:07:32;;;;;;;10.77;3.63;;;23.00;99.90;;;;;;5000076;28;20939;-71
2023/07/04 09:10:07;;;;;;;8.17;3.60;;;23.30;99.90;;;;;;5005674;28;21024;-70
2023/07/04 09:12:36;;;;;;;8.10;4.90;;;22.90;99.90;;;;;;5004165;28;20525;-71
2023/07/04 09:15:13;;;;;;;11.20;4.23;;;23.10;99.90;;;;;;5006596;28;20533;-71
2023/07/04 09:17:51;;;;;;;12.50;5.50;;;23.30;99.90;;;;;;4997643;28;20966;-70
2023/07/04 09:20:18;;;;;;;11.20;4.83;;;23.70;99.90;;;;;;4997583;28;20497;-71
2023/07/04 09:22:46;;;;;;;7.77;3.90;;;23.70;99.90;;;;;;4999171;28;20447;-71
2023/07/04 09:25:13;;;;;;;7.87;4.40;;;23.80;99.90;;;;;;5006076;28;20532;-71
2023/07/04 09:27:40;;;;;;;8.00;4.60;;;23.50;99.90;;;;;;5004148;28;20508;-72
2023/07/04 09:30:09;;;;;;;8.90;4.33;;;23.50;99.90;;;;;;5000598;28;20494;-71
2023/07/04 09:32:36;;;;;;;8.27;4.33;;;23.80;99.90;;;;;;4995337;28;20539;-70
2023/07/04 09:35:05;;;;;;;9.07;5.07;;;24.10;99.90;;;;;;5007736;28;20474;-71
2023/07/04 09:37:32;;;;;;;7.93;4.63;;;24.00;99.90;;;;;;5006092;28;20450;-70
2023/07/04 09:40:03;;;;;;;10.07;5.50;;;24.10;99.90;;;;;;5006720;28;20462;-71
2023/07/04 09:42:42;;;;;;;12.33;5.13;;;24.10;99.90;;;;;;5001492;28;20456;-71
2023/07/04 09:45:12;;;;;;;8.43;5.50;;;24.10;99.90;;;;;;4995860;28;20478;-70
2023/07/04 09:47:45;;;;;;;13.50;5.60;;;23.80;99.90;;;;;;4998354;28;20518;-70
2023/07/04 09:50:14;;;;;;;10.60;6.10;;;23.80;99.90;;;;;;5005091;28;21029;-71
2023/07/04 09:52:41;;;;;;;9.67;5.80;;;23.90;99.90;;;;;;5005353;28;20881;-70
2023/07/04 09:55:16;;;;;;;8.83;5.47;;;24.10;99.90;;;;;;4999461;28;20490;-70
2023/07/04 09:57:44;;;;;;;11.53;5.40;;;24.30;99.90;;;;;;5003945;28;20989;-70
2023/07/04 10:00:18;;;;;;;6.83;4.90;;;24.30;99.90;;;;;;5004562;28;20813;-70
2023/07/04 10:02:46;;;;;;;8.37;5.30;;;24.30;99.90;;;;;;5005193;28;20829;-71
2023/07/04 10:05:26;;;;;;;10.03;5.70;;;24.30;99.90;;;;;;4997652;28;20835;-71
2023/07/04 10:08:01;;;;;;;8.30;4.90;;;24.50;99.90;;;;;;5002506;28;20516;-70
2023/07/04 10:10:32;;;;;;;7.70;6.57;;;24.80;99.90;;;;;;4994530;28;20541;-70
2023/07/04 10:12:59;;;;;;;13.93;7.10;;;24.80;99.90;;;;;;5003357;28;20467;-69
2023/07/04 10:15:35;;;;;;;9.37;6.97;;;24.40;99.90;;;;;;5001353;28;20455;-70
2023/07/04 10:18:04;;;;;;;10.60;6.23;;;24.20;99.90;;;;;;5004431;28;20462;-70
2023/07/04 10:20:37;;;;;;;8.43;5.80;;;24.30;99.90;;;;;;5003323;28;20455;-70
2023/07/04 10:23:03;;;;;;;9.50;6.10;;;24.70;99.90;;;;;;5003641;28;20450;-69
2023/07/04 10:25:31;;;;;;;7.87;5.97;;;25.30;99.90;;;;;;5009482;28;20513;-70
2023/07/04 10:28:10;;;;;;;9.70;6.00;;;25.30;99.90;;;;;;4997802;28;20455;-69
2023/07/04 10:30:39;;;;;;;8.53;5.77;;;25.20;99.90;;;;;;4999926;28;20517;-69
2023/07/04 10:33:13;;;;;;;10.20;5.90;;;25.50;99.90;;;;;;5001298;28;20528;-70
2023/07/04 10:35:45;;;;;;;10.53;6.37;;;25.60;99.90;;;;;;5007406;28;20838;-69
2023/07/04 10:38:24;;;;;;;8.10;6.30;;;25.50;99.90;;;;;;5001144;28;20455;-69
2023/07/04 10:40:53;;;;;;;7.80;6.20;;;25.40;99.90;;;;;;5006199;28;20520;-70
2023/07/04 10:43:27;;;;;;;12.50;6.50;;;25.40;99.90;;;;;;5000005;28;20473;-69
2023/07/04 10:45:57;;;;;;;9.87;6.60;;;25.40;99.90;;;;;;5001201;28;20447;-70
2023/07/04 10:48:24;;;;;;;10.50;7.00;;;25.40;99.90;;;;;;5006331;28;20508;-70
2023/07/04 10:50:56;;;;;;;8.20;6.50;;;25.50;99.90;;;;;;5000085;28;20526;-70
2023/07/04 10:53:23;;;;;;;9.57;6.50;;;25.20;99.90;;;;;;4994260;28;20528;-69
2023/07/04 10:55:56;;;;;;;6.23;5.60;;;25.50;99.90;;;;;;5002113;28;20526;-70
2023/07/04 10:58:27;;;;;;;10.70;6.60;;;25.40;99.90;;;;;;5003133;28;20464;-70
2023/07/04 11:00:58;;;;;;;9.30;6.30;;;25.40;99.90;;;;;;4998497;28;20524;-70
2023/07/04 11:03:30;;;;;;;11.17;7.23;;;25.40;99.90;;;;;;5009008;28;20484;-69
2023/07/04 11:05:58;;;;;;;10.00;7.37;;;25.70;99.90;;;;;;4998149;28;20517;-70
2023/07/04 11:08:30;;;;;;;10.80;7.40;;;26.10;99.60;;;;;;4995267;28;20470;-71
2023/07/04 11:11:03;;;;;;;10.40;7.83;;;26.60;98.10;;;;;;4999395;28;20486;-70
2023/07/04 11:13:29;;;;;;;9.80;7.47;;;27.00;96.80;;;;;;5004396;28;20478;-70
2023/07/04 11:15:58;;;;;;;11.17;7.47;;;27.40;96.70;;;;;;5006615;28;20870;-70
2023/07/04 11:18:29;;;;;;;8.90;7.30;;;27.90;95.80;;;;;;5003114;28;20454;-70
2023/07/04 11:21:08;;;;;;;12.33;7.30;;;27.90;94.60;;;;;;5008264;28;20839;-70
2023/07/04 11:23:46;;;;;;;9.00;6.93;;;27.50;94.70;;;;;;4998069;28;20486;-70
2023/07/04 11:26:14;;;;;;;8.13;6.90;;;27.50;94.70;;;;;;5007212;28;20504;-70
2023/07/04 11:28:49;;;;;;;14.10;8.93;;;27.70;93.50;;;;;;5003908;28;20455;-69
2023/07/04 11:31:24;;;;;;;7.80;6.73;;;27.50;93.90;;;;;;5000218;28;20455;-70
2023/07/04 11:34:11;;;;;;;9.60;8.13;;;27.60;95.30;;;;;;5002663;28;20473;-70
2023/07/04 11:36:42;;;;;;;10.80;8.33;;;27.60;92.30;;;;;;4995247;28;20497;-70
2023/07/04 11:39:30;;;;;;;11.17;7.87;;;27.70;93.00;;;;;;5003969;28;20541;-70
2023/07/04 11:42:08;;;;;;;13.07;8.40;;;27.70;93.30;;;;;;5002698;28;20537;-70
2023/07/04 11:44:48;;;;;;;13.37;8.63;;;27.50;92.00;;;;;;5007056;28;20536;-70
2023/07/04 11:47:18;;;;;;;10.30;8.30;;;26.80;92.70;;;;;;5004885;28;20450;-70
2023/07/04 11:49:55;;;;;;;15.40;8.70;;;26.30;92.80;;;;;;4999233;28;20491;-70
2023/07/04 11:52:25;;;;;;;12.10;8.20;;;26.30;94.10;;;;;;5007359;28;20450;-70
2023/07/04 11:54:56;;;;;;;9.53;7.63;;;26.50;93.60;;;;;;5009004;28;20920;-70
2023/07/04 11:57:44;;;;;;;10.37;8.20;;;26.60;93.20;;;;;;5011538;28;20477;-70
2023/07/04 12:00:22;;;;;;;14.63;9.40;;;26.40;93.20;;;;;;5004908;28;20800;-70
2023/07/04 12:02:50;;;;;;;16.50;11.30;;;26.00;93.40;;;;;;5003980;28;20500;-70
2023/07/04 12:05:30;;;;;;;12.60;8.60;;;26.20;93.70;;;;;;5007236;28;20555;-70
2023/07/04 12:08:01;;;;;;;12.63;8.33;;;26.40;93.20;;;;;;5008820;28;20997;-69
2023/07/04 12:10:30;;;;;;;12.43;8.63;;;26.50;93.10;;;;;;5011438;28;20535;-70
2023/07/04 12:13:01;;;;;;;10.40;8.13;;;26.70;93.70;;;;;;5001791;28;20942;-70
2023/07/04 12:15:30;;;;;;;13.47;9.00;;;27.20;93.70;;;;;;5001177;28;20458;-70
2023/07/04 12:18:00;;;;;;;12.10;8.50;;;27.40;92.40;;;;;;5008176;28;21028;-71
2023/07/04 12:20:29;;;;;;;11.03;9.20;;;27.50;92.00;;;;;;5009516;28;20449;-70
2023/07/04 12:22:58;;;;;;;21.73;8.47;;;27.20;91.90;;;;;;5011875;28;20485;-70
2023/07/04 12:25:27;;;;;;;15.00;9.67;;;27.20;91.80;;;;;;5006762;28;21030;-70
2023/07/04 12:27:56;;;;;;;11.53;9.30;;;27.60;92.10;;;;;;4997468;28;20616;-70
2023/07/04 12:30:24;;;;;;;10.83;9.00;;;27.60;90.90;;;;;;5003019;28;20497;-70
2023/07/04 12:32:52;;;;;;;16.43;9.33;;;27.90;91.20;;;;;;5006046;28;20913;-69
2023/07/04 12:35:21;;;;;;;12.90;9.70;;;27.80;90.40;;;;;;5005090;28;20540;-70
2023/07/04 12:37:51;;;;;;;12.67;9.20;;;27.70;90.80;;;;;;5009978;28;20508;-70
2023/07/04 12:40:20;;;;;;;12.33;9.00;;;27.70;90.90;;;;;;4997609;28;20864;-69
2023/07/04 12:42:47;;;;;;;15.10;10.40;;;27.90;91.30;;;;;;5005911;28;20459;-70
2023/07/04 12:45:21;;;;;;;11.53;9.03;;;27.70;89.30;;;;;;5001676;28;20478;-70
2023/07/04 12:47:51;;;;;;;10.23;9.13;;;27.60;90.20;;;;;;5003254;28;20496;-70
2023/07/04 12:50:19;;;;;;;14.70;9.07;;;27.60;88.90;;;;;;4999015;28;20557;-70